createdAt,value
2022-09-20T00:00:40.472Z,0.4
2022-09-20T00:01:56.754Z,0.3
2022-09-20T00:03:13.060Z,0.4
2022-09-20T00:04:29.344Z,0.4
2022-09-20T00:05:45.644Z,0.4
2022-09-20T00:07:01.932Z,0.6
2022-09-20T00:08:18.221Z,0.5
2022-09-20T00:09:34.512Z,0.4
2022-09-20T00:10:49.815Z,0.5
2022-09-20T00:12:06.114Z,0.3
2022-09-20T00:13:22.403Z,0.4
2022-09-20T00:14:38.704Z,0.4
2022-09-20T00:15:54.991Z,0.5
2022-09-20T00:17:11.283Z,0.4
2022-09-20T00:18:26.606Z,0.6
2022-09-20T00:19:42.892Z,0.5
2022-09-20T00:20:59.189Z,0.4
2022-09-20T00:22:15.480Z,0.4
2022-09-20T00:23:31.770Z,0.3
2022-09-20T00:24:48.065Z,0.6
2022-09-20T00:26:04.362Z,0.5
2022-09-20T00:27:20.643Z,0.5
2022-09-20T00:28:36.932Z,0.6
2022-09-20T00:29:53.234Z,0.4
2022-09-20T00:31:09.536Z,0.5
2022-09-20T00:32:25.825Z,0.4
2022-09-20T00:33:42.122Z,0.5
2022-09-20T00:34:57.418Z,0.4
2022-09-20T00:36:13.716Z,0.6
2022-09-20T00:37:30.011Z,0.7
2022-09-20T00:38:46.297Z,0.6
2022-09-20T00:40:02.598Z,0.5
2022-09-20T00:41:18.895Z,0.5
2022-09-20T00:42:35.168Z,0.4
2022-09-20T00:43:51.466Z,0.7
2022-09-20T00:45:07.761Z,0.6
2022-09-20T00:46:24.047Z,0.5
2022-09-20T00:48:56.647Z,0.5
2022-09-20T00:50:12.935Z,0.5
2022-09-20T00:51:28.248Z,0.4
2022-09-20T00:52:44.535Z,0.6
2022-09-20T00:54:00.822Z,0.6
2022-09-20T00:55:17.116Z,0.3
2022-09-20T00:56:33.426Z,0.5
2022-09-20T00:57:49.702Z,0.5
2022-09-20T00:59:05.995Z,0.5
2022-09-20T01:00:22.305Z,0.5
2022-09-20T01:01:38.594Z,0.4
2022-09-20T01:02:54.885Z,0.5
2022-09-20T01:04:11.179Z,0.4
2022-09-20T01:05:27.474Z,0.4
2022-09-20T01:06:43.759Z,0.5
2022-09-20T01:07:59.061Z,0.5
2022-09-20T01:09:15.356Z,0.6
2022-09-20T01:10:31.644Z,0.4
2022-09-20T01:11:47.953Z,0.4
2022-09-20T01:13:04.238Z,0.6
2022-09-20T01:14:20.524Z,0.4
2022-09-20T01:15:36.816Z,0.6
2022-09-20T01:16:53.112Z,0.5
2022-09-20T01:18:09.416Z,0.4
2022-09-20T01:19:25.709Z,0.7
2022-09-20T01:20:41.995Z,0.5
2022-09-20T01:21:58.298Z,1
2022-09-20T01:23:14.589Z,0.6
2022-09-20T01:24:29.888Z,0.7
2022-09-20T01:25:46.188Z,0.4
2022-09-20T01:27:02.477Z,0.5
2022-09-20T01:28:18.774Z,0.8
2022-09-20T01:29:35.060Z,0.5
2022-09-20T01:30:51.346Z,0.4
2022-09-20T01:32:07.639Z,0.7
2022-09-20T01:33:23.937Z,0.6
2022-09-20T01:34:40.233Z,0.6
2022-09-20T01:35:56.520Z,0.6
2022-09-20T01:37:12.807Z,0.4
2022-09-20T01:39:45.409Z,0.5
2022-09-20T01:41:00.714Z,0.5
2022-09-20T01:42:17.011Z,0.4
2022-09-20T01:43:33.296Z,0.5
2022-09-20T01:44:49.590Z,0.5
2022-09-20T01:46:05.887Z,0.5
2022-09-20T01:47:22.179Z,0.6
2022-09-20T01:48:38.467Z,0.5
2022-09-20T01:49:54.753Z,0.7
2022-09-20T01:51:11.051Z,1.1
2022-09-20T01:52:27.340Z,0.5
2022-09-20T01:53:43.642Z,0.5
2022-09-20T01:54:59.929Z,0.3
2022-09-20T01:56:16.222Z,0.4
2022-09-20T01:57:31.540Z,0.5
2022-09-20T01:58:47.830Z,0.5
2022-09-20T02:00:04.113Z,0.7
2022-09-20T02:01:20.411Z,0.6
2022-09-20T02:02:36.709Z,0.6
2022-09-20T02:03:52.999Z,0.4
2022-09-20T02:05:09.282Z,0.6
2022-09-20T02:06:25.577Z,0.4
2022-09-20T02:07:41.885Z,0.6
2022-09-20T02:08:58.159Z,0.7
2022-09-20T02:10:14.461Z,0.6
2022-09-20T02:11:30.748Z,0.9
2022-09-20T02:12:47.058Z,0.8
2022-09-20T02:14:02.365Z,0.9
2022-09-20T02:15:18.645Z,0.7
2022-09-20T02:16:34.939Z,0.7
2022-09-20T02:17:51.239Z,0.9
2022-09-20T02:19:07.525Z,1
2022-09-20T02:20:23.818Z,1.4
2022-09-20T02:21:40.118Z,1
2022-09-20T02:22:56.395Z,1.1
2022-09-20T02:24:12.700Z,0.8
2022-09-20T02:25:28.981Z,1
2022-09-20T02:26:45.276Z,1.1
2022-09-20T02:28:01.580Z,1
2022-09-20T02:29:17.865Z,1
2022-09-20T02:30:33.166Z,1.1
2022-09-20T02:31:49.475Z,0.6
2022-09-20T02:33:05.765Z,0.7
2022-09-20T02:34:22.053Z,0.8
2022-09-20T02:35:38.344Z,0.7
2022-09-20T02:36:54.630Z,0.9
2022-09-20T02:38:10.926Z,0.7
2022-09-20T02:39:27.226Z,0.6
2022-09-20T02:40:43.521Z,1.1
2022-09-20T02:41:59.801Z,0.7
2022-09-20T02:43:16.098Z,0.7
2022-09-20T02:44:32.392Z,0.5
2022-09-20T02:45:48.686Z,0.7
2022-09-20T02:47:03.987Z,0.8
2022-09-20T02:48:20.283Z,0.8
2022-09-20T02:49:36.574Z,1.2
2022-09-20T02:50:52.869Z,0.9
2022-09-20T02:52:09.168Z,0.7
2022-09-20T02:53:25.468Z,0.8
2022-09-20T02:54:41.759Z,1
2022-09-20T02:55:58.041Z,0.7
2022-09-20T02:57:14.340Z,0.9
2022-09-20T02:58:30.634Z,0.7
2022-09-20T02:59:46.917Z,0.8
2022-09-20T03:01:03.214Z,0.8
2022-09-20T03:02:19.512Z,0.8
2022-09-20T03:03:34.822Z,0.6
2022-09-20T03:04:51.110Z,0.7
2022-09-20T03:06:07.397Z,0.9
2022-09-20T03:07:23.701Z,0.7
2022-09-20T03:08:39.995Z,0.8
2022-09-20T03:09:56.289Z,0.7
2022-09-20T03:11:12.572Z,0.8
2022-09-20T03:12:28.857Z,0.7
2022-09-20T03:13:45.169Z,0.7
2022-09-20T03:15:01.446Z,0.7
2022-09-20T03:16:17.752Z,0.9
2022-09-20T03:17:34.028Z,0.7
2022-09-20T03:18:50.338Z,0.9
2022-09-20T03:20:05.642Z,0.6
2022-09-20T03:21:21.927Z,0.7
2022-09-20T03:22:38.222Z,0.7
2022-09-20T03:23:54.517Z,0.6
2022-09-20T03:25:10.800Z,0.6
2022-09-20T03:26:27.095Z,1.7
2022-09-20T03:27:43.390Z,0.8
2022-09-20T03:28:59.679Z,0.7
2022-09-20T03:30:15.971Z,0.6
2022-09-20T03:31:32.272Z,0.8
2022-09-20T03:32:48.575Z,0.5
2022-09-20T03:34:04.856Z,0.8
2022-09-20T03:35:21.151Z,0.7
2022-09-20T03:36:36.460Z,0.5
2022-09-20T03:37:52.758Z,0.6
2022-09-20T03:39:09.048Z,0.6
2022-09-20T03:40:25.328Z,0.6
2022-09-20T03:41:41.620Z,0.6
2022-09-20T03:42:57.915Z,0.9
2022-09-20T03:44:14.210Z,0.6
2022-09-20T03:45:30.504Z,0.8
2022-09-20T03:46:46.803Z,0.6
2022-09-20T03:48:03.095Z,0.6
2022-09-20T03:49:19.391Z,0.8
2022-09-20T03:50:35.673Z,0.8
2022-09-20T03:51:51.975Z,0.8
2022-09-20T03:53:07.277Z,0.6
2022-09-20T03:54:23.579Z,0.8
2022-09-20T03:55:39.874Z,0.8
2022-09-20T03:56:56.151Z,0.5
2022-09-20T03:58:12.462Z,0.6
2022-09-20T03:59:28.740Z,0.6
2022-09-20T04:00:45.036Z,0.8
2022-09-20T04:02:01.325Z,0.7
2022-09-20T04:03:17.620Z,0.6
2022-09-20T04:04:33.925Z,0.7
2022-09-20T04:05:50.210Z,0.5
2022-09-20T04:07:06.503Z,0.7
2022-09-20T04:08:22.795Z,0.8
2022-09-20T04:09:38.113Z,0.6
2022-09-20T04:10:54.398Z,0.7
2022-09-20T04:12:10.692Z,0.6
2022-09-20T04:13:26.978Z,1
2022-09-20T04:14:43.283Z,0.8
2022-09-20T04:15:59.560Z,0.6
2022-09-20T04:17:15.864Z,0.8
2022-09-20T04:18:32.153Z,0.8
2022-09-20T04:19:48.453Z,0.5
2022-09-20T04:21:04.733Z,1
2022-09-20T04:22:21.022Z,0.6
2022-09-20T04:23:37.328Z,0.6
2022-09-20T04:24:53.610Z,0.6
2022-09-20T04:26:08.927Z,0.8
2022-09-20T04:27:25.224Z,0.8
2022-09-20T04:28:41.488Z,0.7
2022-09-20T04:29:57.730Z,0.7
2022-09-20T04:31:13.975Z,0.8
2022-09-20T04:32:30.206Z,0.6
2022-09-20T04:33:45.461Z,0.6
2022-09-20T04:35:01.719Z,0.6
2022-09-20T04:36:17.949Z,0.6
2022-09-20T04:37:34.206Z,0.6
2022-09-20T04:38:50.446Z,0.4
2022-09-20T04:40:06.682Z,0.6
2022-09-20T04:41:22.926Z,0.6
2022-09-20T04:42:39.159Z,0.6
2022-09-20T04:43:55.395Z,0.8
2022-09-20T04:45:11.640Z,0.4
2022-09-20T04:46:27.875Z,0.8
2022-09-20T04:47:44.105Z,0.6
2022-09-20T04:49:00.342Z,0.6
2022-09-20T04:50:15.600Z,0.6
2022-09-20T04:51:31.836Z,0.6
2022-09-20T04:52:48.085Z,0.6
2022-09-20T04:54:04.315Z,0.7
2022-09-20T04:55:20.560Z,0.7
2022-09-20T04:56:36.809Z,0.6
2022-09-20T04:57:53.036Z,1
2022-09-20T04:59:09.278Z,0.5
2022-09-20T05:00:25.512Z,0.7
2022-09-20T05:01:41.750Z,0.8
2022-09-20T05:02:57.991Z,0.8
2022-09-20T05:04:14.237Z,0.6
2022-09-20T05:05:30.461Z,0.7
2022-09-20T05:06:45.735Z,0.9
2022-09-20T05:08:01.969Z,0.8
2022-09-20T05:09:18.212Z,0.9
2022-09-20T05:10:34.441Z,0.7
2022-09-20T05:11:50.679Z,0.6
2022-09-20T05:13:06.909Z,0.6
2022-09-20T05:14:23.166Z,0.5
2022-09-20T05:15:39.390Z,0.8
2022-09-20T05:16:55.629Z,1
2022-09-20T05:18:11.878Z,0.6
2022-09-20T05:19:28.107Z,0.6
2022-09-20T05:20:44.343Z,1.1
2022-09-20T05:22:00.599Z,0.8
2022-09-20T05:23:15.841Z,1.3
2022-09-20T05:24:32.084Z,0.8
2022-09-20T05:25:48.316Z,1.1
2022-09-20T05:27:04.560Z,0.8
2022-09-20T05:28:20.791Z,0.8
2022-09-20T05:29:37.037Z,0.9
2022-09-20T05:30:53.269Z,0.8
2022-09-20T05:32:09.508Z,0.8
2022-09-20T05:33:25.756Z,1
2022-09-20T05:34:41.998Z,0.9
2022-09-20T05:35:58.233Z,0.7
2022-09-20T05:37:14.476Z,0.9
2022-09-20T05:38:30.719Z,0.8
2022-09-20T05:39:45.960Z,0.8
2022-09-20T05:41:02.202Z,1.3
2022-09-20T05:42:18.439Z,1
2022-09-20T05:43:34.685Z,1
2022-09-20T05:44:50.911Z,1.1
2022-09-20T05:46:07.158Z,1
2022-09-20T05:47:23.389Z,1.5
2022-09-20T05:48:39.625Z,1.6
2022-09-20T05:49:55.866Z,1.4
2022-09-20T05:51:12.103Z,1
2022-09-20T05:52:28.358Z,1.5
2022-09-20T05:53:44.599Z,1.4
2022-09-20T05:55:00.836Z,1
2022-09-20T05:56:16.079Z,1.1
2022-09-20T05:57:32.318Z,1.2
2022-09-20T05:58:48.554Z,1.1
2022-09-20T06:00:04.790Z,1.4
2022-09-20T06:01:21.030Z,2.3
2022-09-20T06:02:37.282Z,1.4
2022-09-20T06:03:53.507Z,1.3
2022-09-20T06:05:09.742Z,1.8
2022-09-20T06:07:42.231Z,1.3
2022-09-20T06:08:58.477Z,1.4
2022-09-20T06:10:14.699Z,1.3
2022-09-20T06:11:30.937Z,1.3
2022-09-20T06:14:02.434Z,1.1
2022-09-20T06:15:18.669Z,1.4
2022-09-20T06:16:34.915Z,1.6
2022-09-20T06:17:51.158Z,1.6
2022-09-20T06:19:07.000Z,1.6
2022-09-20T06:20:23.634Z,1.6
2022-09-20T06:21:39.866Z,1.3
2022-09-20T06:22:56.100Z,1.8
2022-09-20T06:24:12.355Z,1.8
2022-09-20T06:25:28.594Z,1.6
2022-09-20T06:26:44.835Z,2
2022-09-20T06:28:01.060Z,1.9
2022-09-20T06:29:16.329Z,2.3
2022-09-20T06:30:32.552Z,1.7
2022-09-20T06:31:48.806Z,2.1
2022-09-20T06:33:05.040Z,1.5
2022-09-20T06:34:21.270Z,2
2022-09-20T06:35:37.521Z,2
2022-09-20T06:36:53.750Z,1.9
2022-09-20T06:38:09.982Z,2
2022-09-20T06:39:26.233Z,1.9
2022-09-20T06:40:42.475Z,2.3
2022-09-20T06:41:58.702Z,1.9
2022-09-20T06:43:14.950Z,1.9
2022-09-20T06:44:31.196Z,2.2
2022-09-20T06:45:46.436Z,2
2022-09-20T06:47:02.682Z,1.7
2022-09-20T06:48:18.920Z,1.8
2022-09-20T06:49:35.156Z,2.3
2022-09-20T06:50:51.402Z,1.9
2022-09-20T06:52:07.000Z,2.4
2022-09-20T06:53:23.869Z,2.2
2022-09-20T06:54:40.121Z,2.6
2022-09-20T06:55:56.343Z,2.6
2022-09-20T06:57:12.595Z,2.6
2022-09-20T06:58:28.818Z,2.8
2022-09-20T06:59:45.056Z,2.5
2022-09-20T07:01:01.303Z,2.9
2022-09-20T07:02:16.559Z,2.5
2022-09-20T07:03:32.808Z,2.5
2022-09-20T07:04:49.029Z,3
2022-09-20T07:06:05.272Z,2.8
2022-09-20T07:07:21.510Z,3.1
2022-09-20T07:08:37.756Z,2.7
2022-09-20T07:09:53.986Z,2.4
2022-09-20T07:11:10.236Z,3.2
2022-09-20T07:12:26.464Z,2.4
2022-09-20T07:13:42.705Z,2.6
2022-09-20T07:14:58.948Z,2.4
2022-09-20T07:16:15.188Z,2.6
2022-09-20T07:17:31.414Z,2.5
2022-09-20T07:18:46.686Z,2.5
2022-09-20T07:20:02.919Z,2.7
2022-09-20T07:21:19.148Z,2.4
2022-09-20T07:22:35.389Z,2.4
2022-09-20T07:23:51.625Z,2.6
2022-09-20T07:25:07.876Z,2.5
2022-09-20T07:26:24.113Z,1.9
2022-09-20T07:27:40.339Z,2.4
2022-09-20T07:28:56.596Z,2.6
2022-09-20T07:30:12.822Z,2.3
2022-09-20T07:31:29.057Z,2.5
2022-09-20T07:32:45.309Z,2.4
2022-09-20T07:34:01.532Z,2.5
2022-09-20T07:35:16.790Z,2.5
2022-09-20T07:36:33.039Z,2.2
2022-09-20T07:37:49.280Z,2.7
2022-09-20T07:39:05.523Z,2.3
2022-09-20T07:40:21.756Z,2.5
2022-09-20T07:41:37.984Z,2.6
2022-09-20T07:42:54.237Z,2.2
2022-09-20T07:44:10.460Z,2.4
2022-09-20T07:45:26.717Z,2.3
2022-09-20T07:46:42.948Z,2.4
2022-09-20T07:47:59.192Z,2.1
2022-09-20T07:49:15.415Z,2.2
2022-09-20T07:50:31.658Z,2.6
2022-09-20T07:51:46.909Z,2.5
2022-09-20T07:53:03.145Z,2.5
2022-09-20T07:54:19.388Z,2.7
2022-09-20T07:55:35.643Z,2
2022-09-20T07:56:51.874Z,2.6
2022-09-20T07:58:08.109Z,2.5
2022-09-20T07:59:24.345Z,2.6
2022-09-20T08:00:40.585Z,2.4
2022-09-20T08:01:56.820Z,2.8
2022-09-20T08:03:13.062Z,1.7
2022-09-20T08:04:29.303Z,2.4
2022-09-20T08:05:45.544Z,2.2
2022-09-20T08:07:01.774Z,3.1
2022-09-20T08:08:17.043Z,2.4
2022-09-20T08:09:33.265Z,2.6
2022-09-20T08:10:49.515Z,2
2022-09-20T08:12:05.759Z,2.5
2022-09-20T08:13:21.998Z,2.5
2022-09-20T08:14:38.220Z,2.2
2022-09-20T08:15:54.470Z,2.4
2022-09-20T08:17:10.713Z,2.4
2022-09-20T08:18:26.953Z,2.2
2022-09-20T08:19:43.189Z,2
2022-09-20T08:20:59.424Z,2.3
2022-09-20T08:22:15.666Z,2.4
2022-09-20T08:23:31.907Z,2.1
2022-09-20T08:24:47.163Z,2.5
2022-09-20T08:26:03.403Z,2.2
2022-09-20T08:27:19.631Z,2.2
2022-09-20T08:29:52.120Z,2.2
2022-09-20T08:31:08.346Z,2
2022-09-20T08:32:24.594Z,2.1
2022-09-20T08:33:40.838Z,2.2
2022-09-20T08:34:57.071Z,2.3
2022-09-20T08:36:13.301Z,2
2022-09-20T08:37:29.534Z,2.2
2022-09-20T08:38:45.791Z,2
2022-09-20T08:40:02.020Z,2
2022-09-20T08:41:17.285Z,2.4
2022-09-20T08:42:33.514Z,1.6
2022-09-20T08:43:49.759Z,2
2022-09-20T08:45:05.989Z,1.9
2022-09-20T08:46:22.222Z,1.8
2022-09-20T08:47:38.465Z,1.9
2022-09-20T08:48:53.719Z,1.7
2022-09-20T08:50:09.963Z,1.9
2022-09-20T08:52:42.444Z,1.7
2022-09-20T08:53:58.688Z,1.7
2022-09-20T08:55:14.932Z,1.9
2022-09-20T08:56:31.161Z,2
2022-09-20T08:57:47.405Z,2
2022-09-20T08:59:03.630Z,1.7
2022-09-20T09:00:19.872Z,1.7
2022-09-20T09:01:36.125Z,2.2
2022-09-20T09:02:52.362Z,1.7
2022-09-20T09:04:08.584Z,1.7
2022-09-20T09:05:23.845Z,2
2022-09-20T09:06:40.079Z,1.8
2022-09-20T09:07:56.333Z,1.9
2022-09-20T09:09:12.568Z,2.1
2022-09-20T09:10:28.804Z,2
2022-09-20T09:11:45.047Z,1.9
2022-09-20T09:14:17.517Z,1.9
2022-09-20T09:15:33.761Z,1.3
2022-09-20T09:16:50.004Z,1.9
2022-09-20T09:18:06.241Z,1.7
2022-09-20T09:19:22.475Z,2
2022-09-20T09:20:38.713Z,1.8
2022-09-20T09:21:53.976Z,1.9
2022-09-20T09:23:10.202Z,2.2
2022-09-20T09:24:26.439Z,2.2
2022-09-20T09:25:42.677Z,1.7
2022-09-20T09:26:58.917Z,2.1
2022-09-20T09:28:15.163Z,2.3
2022-09-20T09:29:31.392Z,1.8
2022-09-20T09:30:47.646Z,1.8
2022-09-20T09:32:03.873Z,2
2022-09-20T09:33:20.114Z,2.1
2022-09-20T09:34:36.357Z,2
2022-09-20T09:35:52.587Z,1.9
2022-09-20T09:37:08.831Z,2.7
2022-09-20T09:38:24.083Z,2
2022-09-20T09:39:40.316Z,1.9
2022-09-20T09:40:56.556Z,2.3
2022-09-20T09:42:12.791Z,1.9
2022-09-20T09:43:29.044Z,2
2022-09-20T09:44:45.268Z,2
2022-09-20T09:46:01.527Z,2.4
2022-09-20T09:47:17.751Z,2.4
2022-09-20T09:48:33.990Z,2.7
2022-09-20T09:49:50.226Z,2.4
2022-09-20T09:51:06.473Z,2.5
2022-09-20T09:52:22.713Z,2.2
2022-09-20T09:53:38.946Z,2.5
2022-09-20T09:54:54.195Z,2.3
2022-09-20T09:56:10.433Z,2.1
2022-09-20T09:57:26.674Z,2.2
2022-09-20T09:58:42.924Z,2.1
2022-09-20T09:59:59.156Z,2.3
2022-09-20T10:01:15.403Z,2.2
2022-09-20T10:02:31.632Z,2.3
2022-09-20T10:03:47.878Z,2.1
2022-09-20T10:05:04.109Z,2.2
2022-09-20T10:06:20.356Z,1.9
2022-09-20T10:07:36.596Z,1.9
2022-09-20T10:08:52.835Z,1.9
2022-09-20T10:10:09.061Z,1.7
2022-09-20T10:11:24.321Z,1.7
2022-09-20T10:12:40.555Z,1.8
2022-09-20T10:13:56.801Z,1.7
2022-09-20T10:15:13.030Z,1.6
2022-09-20T10:16:29.281Z,1.5
2022-09-20T10:17:45.523Z,1.5
2022-09-20T10:19:01.747Z,1.2
2022-09-20T10:20:17.981Z,1.6
2022-09-20T10:21:34.223Z,1.6
2022-09-20T10:22:50.456Z,1.5
2022-09-20T10:24:06.704Z,1.5
2022-09-20T10:25:22.951Z,1.4
2022-09-20T10:26:39.180Z,1.7
2022-09-20T10:27:54.441Z,1.6
2022-09-20T10:29:10.680Z,1.8
2022-09-20T10:30:26.916Z,1.5
2022-09-20T10:31:43.142Z,1.7
2022-09-20T10:32:59.395Z,1.5
2022-09-20T10:34:15.625Z,1.4
2022-09-20T10:35:31.878Z,1.5
2022-09-20T10:36:48.115Z,1.7
2022-09-20T10:38:04.354Z,1.7
2022-09-20T10:39:20.592Z,1.2
2022-09-20T10:40:36.834Z,1.2
2022-09-20T10:41:53.064Z,1.4
2022-09-20T10:43:09.307Z,1.4
2022-09-20T10:44:24.566Z,1.5
2022-09-20T10:45:40.807Z,1.3
2022-09-20T10:46:57.035Z,1
2022-09-20T10:48:13.272Z,1
2022-09-20T10:49:29.510Z,1.6
2022-09-20T10:50:45.761Z,1.2
2022-09-20T10:52:02.008Z,1.5
2022-09-20T10:53:18.245Z,1.4
2022-09-20T10:54:34.471Z,1.3
2022-09-20T10:55:50.721Z,1.2
2022-09-20T10:57:06.963Z,1.2
2022-09-20T10:58:23.208Z,1
2022-09-20T10:59:39.436Z,1.1
2022-09-20T11:00:54.697Z,1.1
2022-09-20T11:02:10.932Z,1.2
2022-09-20T11:03:27.167Z,1.1
2022-09-20T11:04:43.407Z,1.4
2022-09-20T11:07:15.888Z,1.3
2022-09-20T11:08:32.128Z,1
2022-09-20T11:09:48.374Z,1.2
2022-09-20T11:11:04.598Z,1
2022-09-20T11:12:20.850Z,1
2022-09-20T11:13:37.085Z,1.1
2022-09-20T11:14:53.328Z,1.1
2022-09-20T11:16:09.554Z,1.1
2022-09-20T11:17:24.804Z,0.9
2022-09-20T11:18:41.040Z,1.1
2022-09-20T11:19:57.294Z,1.1
2022-09-20T11:21:13.524Z,0.8
2022-09-20T11:22:29.768Z,0.6
2022-09-20T11:23:46.011Z,0.5
2022-09-20T11:25:02.240Z,0.6
2022-09-20T11:26:18.486Z,0.9
2022-09-20T11:27:34.721Z,0.8
2022-09-20T11:28:50.973Z,0.7
2022-09-20T11:30:07.207Z,1
2022-09-20T11:31:23.434Z,0.8
2022-09-20T11:32:39.684Z,0.9
2022-09-20T11:33:54.946Z,0.9
2022-09-20T11:35:11.170Z,0.9
2022-09-20T11:36:27.420Z,0.8
2022-09-20T11:37:43.659Z,1.1
2022-09-20T11:38:59.910Z,0.9
2022-09-20T11:40:16.133Z,1
2022-09-20T11:41:32.376Z,0.9
2022-09-20T11:42:48.623Z,0.9
2022-09-20T11:44:04.863Z,1
2022-09-20T11:45:21.102Z,1.1
2022-09-20T11:46:37.338Z,1.1
2022-09-20T11:47:53.566Z,0.8
2022-09-20T11:49:09.808Z,1.3
2022-09-20T11:50:25.061Z,1
2022-09-20T11:51:41.293Z,0.8
2022-09-20T11:52:57.543Z,0.9
2022-09-20T11:54:13.785Z,0.7
2022-09-20T11:55:30.027Z,1
2022-09-20T11:56:46.255Z,0.9
2022-09-20T11:58:02.495Z,1
2022-09-20T11:59:18.723Z,1
2022-09-20T12:00:34.964Z,0.9
2022-09-20T12:01:51.206Z,1.1
2022-09-20T12:03:07.457Z,1.3
2022-09-20T12:04:23.694Z,1.3
2022-09-20T12:05:39.922Z,1.1
2022-09-20T12:06:55.181Z,1
2022-09-20T12:08:11.418Z,1
2022-09-20T12:09:27.661Z,0.8
2022-09-20T12:10:43.914Z,1.2
2022-09-20T12:12:00.134Z,0.7
2022-09-20T12:13:16.373Z,0.8
2022-09-20T12:14:32.615Z,0.8
2022-09-20T12:15:48.850Z,0.9
2022-09-20T12:17:05.096Z,0.7
2022-09-20T12:18:21.331Z,0.4
2022-09-20T12:19:37.571Z,1.1
2022-09-20T12:20:53.813Z,0.7
2022-09-20T12:22:10.040Z,0.6
2022-09-20T12:23:25.305Z,0.6
2022-09-20T12:24:41.533Z,0.7
2022-09-20T12:25:57.784Z,0.5
2022-09-20T12:27:14.019Z,0.5
2022-09-20T12:29:46.489Z,0.5
2022-09-20T12:31:02.726Z,0.4
2022-09-20T12:32:18.965Z,0.8
2022-09-20T12:33:35.206Z,0.7
2022-09-20T12:34:51.439Z,0.6
2022-09-20T12:36:07.694Z,0.6
2022-09-20T12:37:23.928Z,0.6
2022-09-20T12:38:40.158Z,0.6
2022-09-20T12:39:55.417Z,0.7
2022-09-20T12:41:11.661Z,0.5
2022-09-20T12:42:27.896Z,0.7
2022-09-20T12:43:44.132Z,0.9
2022-09-20T12:45:00.375Z,0.7
2022-09-20T12:46:16.620Z,0.6
2022-09-20T12:47:32.855Z,0.5
2022-09-20T12:48:49.094Z,0.7
2022-09-20T12:50:05.318Z,0.9
2022-09-20T12:51:21.562Z,0.9
2022-09-20T12:52:37.811Z,0.8
2022-09-20T12:53:54.050Z,0.9
2022-09-20T12:55:10.276Z,0.9
2022-09-20T12:56:25.542Z,0.9
2022-09-20T12:57:41.767Z,0.9
2022-09-20T12:58:58.007Z,1.1
2022-09-20T13:00:14.244Z,0.9
2022-09-20T13:01:30.483Z,0.8
2022-09-20T13:02:46.715Z,0.9
2022-09-20T13:04:01.994Z,0.7
2022-09-20T13:05:18.213Z,0.7
2022-09-20T13:06:34.465Z,1.1
2022-09-20T13:07:50.691Z,0.7
2022-09-20T13:09:06.929Z,0.9
2022-09-20T13:10:23.174Z,0.7
2022-09-20T13:11:39.406Z,0.8
2022-09-20T13:12:55.647Z,0.7
2022-09-20T13:14:11.885Z,0.7
2022-09-20T13:15:28.143Z,0.6
2022-09-20T13:16:44.382Z,0.7
2022-09-20T13:18:00.627Z,0.6
2022-09-20T13:19:16.852Z,0.6
2022-09-20T13:20:32.101Z,0.6
2022-09-20T13:21:48.347Z,0.5
2022-09-20T13:23:04.579Z,0.5
2022-09-20T13:24:20.836Z,0.6
2022-09-20T13:25:37.072Z,0.5
2022-09-20T13:26:53.318Z,0.7
2022-09-20T13:28:09.547Z,0.6
2022-09-20T13:29:25.792Z,0.6
2022-09-20T13:30:42.021Z,0.5
2022-09-20T13:31:58.276Z,0.4
2022-09-20T13:33:14.517Z,0.6
2022-09-20T13:34:30.741Z,0.4
2022-09-20T13:35:46.976Z,0.5
2022-09-20T13:37:02.243Z,0.6
2022-09-20T13:38:18.471Z,0.5
2022-09-20T13:39:34.725Z,0.3
2022-09-20T13:40:50.952Z,0.2
2022-09-20T13:42:07.192Z,0.3
2022-09-20T13:43:23.435Z,0.6
2022-09-20T13:44:39.678Z,0.7
2022-09-20T13:45:55.903Z,0.6
2022-09-20T13:47:12.146Z,0.6
2022-09-20T13:48:28.389Z,0.5
2022-09-20T13:49:44.625Z,0.6
2022-09-20T13:51:00.863Z,0.4
2022-09-20T13:52:17.093Z,0.4
2022-09-20T13:53:32.375Z,0.6
2022-09-20T13:54:48.598Z,0.5
2022-09-20T13:56:04.836Z,0.6
2022-09-20T13:57:21.090Z,0.5
2022-09-20T13:58:37.314Z,0.6
2022-09-20T13:59:53.557Z,0.5
2022-09-20T14:01:09.793Z,0.4
2022-09-20T14:02:26.040Z,0.4
2022-09-20T14:03:42.283Z,0.3
2022-09-20T14:04:58.519Z,0.4
2022-09-20T14:06:14.760Z,0.4
2022-09-20T14:07:30.990Z,0.7
2022-09-20T14:08:47.228Z,0.5
2022-09-20T14:10:02.484Z,0.6
2022-09-20T14:11:18.722Z,0.5
2022-09-20T14:12:34.955Z,0.5
2022-09-20T14:13:51.195Z,0.8
2022-09-20T14:15:07.441Z,0.4
2022-09-20T14:16:23.672Z,0.3
2022-09-20T14:17:39.914Z,0.3
2022-09-20T14:18:56.148Z,0.3
2022-09-20T14:21:28.620Z,0.4
2022-09-20T14:22:44.867Z,0.3
2022-09-20T14:24:01.107Z,0.3
2022-09-20T14:25:17.336Z,0.6
2022-09-20T14:26:32.603Z,0.5
2022-09-20T14:27:48.834Z,0.4
2022-09-20T14:29:05.069Z,0.5
2022-09-20T14:30:21.307Z,0.3
2022-09-20T14:31:37.540Z,0.6
2022-09-20T14:32:53.794Z,0.3
2022-09-20T14:34:10.025Z,0.5
2022-09-20T14:36:42.511Z,0.5
2022-09-20T14:37:58.744Z,0.4
2022-09-20T14:39:14.979Z,0.4
2022-09-20T14:40:31.213Z,0.4
2022-09-20T14:41:47.470Z,0.7
2022-09-20T14:43:02.716Z,0.4
2022-09-20T14:44:18.959Z,0.4
2022-09-20T14:45:35.196Z,0.6
2022-09-20T14:46:51.419Z,0.3
2022-09-20T14:48:07.673Z,0.4
2022-09-20T14:49:23.906Z,0.4
2022-09-20T14:50:40.131Z,0.5
2022-09-20T14:51:56.379Z,0.4
2022-09-20T14:53:12.614Z,0.2
2022-09-20T14:54:28.856Z,0.5
2022-09-20T14:55:45.099Z,0.4
2022-09-20T14:57:01.339Z,0.3
2022-09-20T14:58:17.584Z,0.5
2022-09-20T14:59:32.846Z,0.5
2022-09-20T15:00:49.076Z,0.6
2022-09-20T15:02:05.316Z,0.3
2022-09-20T15:03:21.551Z,0.6
2022-09-20T15:04:37.792Z,0.4
2022-09-20T15:05:54.025Z,0.5
2022-09-20T15:07:10.259Z,0.4
2022-09-20T15:08:26.514Z,0.3
2022-09-20T15:09:42.742Z,0.2
2022-09-20T15:10:58.992Z,0.3
2022-09-20T15:12:15.226Z,0.4
2022-09-20T15:13:31.459Z,0.2
2022-09-20T15:14:47.709Z,0.6
2022-09-20T15:16:02.961Z,0.4
2022-09-20T15:17:19.181Z,0.5
2022-09-20T15:18:35.411Z,0.3
2022-09-20T15:19:51.638Z,0.6
2022-09-20T15:21:07.890Z,0.5
2022-09-20T15:22:24.125Z,0.4
2022-09-20T15:23:40.368Z,0.5
2022-09-20T15:24:56.592Z,0.3
2022-09-20T15:26:12.829Z,0.4
2022-09-20T15:27:29.076Z,0.5
2022-09-20T15:28:45.313Z,0.4
2022-09-20T15:30:01.561Z,0.3
2022-09-20T15:31:17.791Z,0.4
2022-09-20T15:32:33.051Z,0.4
2022-09-20T15:33:49.287Z,0.4
2022-09-20T15:35:05.530Z,0.3
2022-09-20T15:36:21.779Z,0.3
2022-09-20T15:37:38.004Z,0.2
2022-09-20T15:38:54.250Z,0.4
2022-09-20T15:40:10.470Z,0.5
2022-09-20T15:41:26.713Z,0.4
2022-09-20T15:42:42.948Z,0.5
2022-09-20T15:43:59.198Z,0.4
2022-09-20T15:45:15.430Z,0.4
2022-09-20T15:46:31.670Z,0.3
2022-09-20T15:47:47.914Z,0.4
2022-09-20T15:49:03.175Z,0.3
2022-09-20T15:50:19.398Z,0.8
2022-09-20T15:52:51.889Z,0.5
2022-09-20T15:54:08.121Z,0.5
2022-09-20T15:55:24.362Z,0.6
2022-09-20T15:56:40.590Z,0.5
2022-09-20T15:57:56.839Z,0.7
2022-09-20T15:59:13.080Z,0.5
2022-09-20T16:00:29.313Z,0.9
2022-09-20T16:01:45.550Z,0.6
2022-09-20T16:03:01.790Z,0.6
2022-09-20T16:04:18.028Z,0.5
2022-09-20T16:05:33.270Z,0.5
2022-09-20T16:06:49.508Z,0.5
2022-09-20T16:08:05.761Z,0.6
2022-09-20T16:09:21.998Z,0.8
2022-09-20T16:10:38.230Z,0.6
2022-09-20T16:11:54.473Z,0.6
2022-09-20T16:13:10.701Z,0.6
2022-09-20T16:14:26.957Z,0.5
2022-09-20T16:15:43.185Z,0.7
2022-09-20T16:16:59.429Z,0.5
2022-09-20T16:18:15.665Z,0.6
2022-09-20T16:19:31.904Z,0.6
2022-09-20T16:20:48.141Z,0.6
2022-09-20T16:22:03.394Z,0.6
2022-09-20T16:23:19.631Z,0.6
2022-09-20T16:24:35.864Z,0.5
2022-09-20T16:25:52.112Z,0.7
2022-09-20T16:27:08.354Z,0.6
2022-09-20T16:28:24.588Z,0.7
2022-09-20T16:29:40.833Z,0.8
2022-09-20T16:30:57.056Z,0.8
2022-09-20T16:32:13.312Z,0.7
2022-09-20T16:33:29.533Z,0.7
2022-09-20T16:34:45.776Z,0.8
2022-09-20T16:36:02.021Z,0.8
2022-09-20T16:37:18.253Z,0.7
2022-09-20T16:38:33.513Z,0.6
2022-09-20T16:39:49.751Z,0.7
2022-09-20T16:41:05.994Z,0.6
2022-09-20T16:42:22.229Z,0.5
2022-09-20T16:43:38.470Z,0.6
2022-09-20T16:46:10.945Z,0.5
2022-09-20T16:47:27.171Z,0.5
2022-09-20T16:48:43.428Z,0.5
2022-09-20T16:49:59.669Z,0.5
2022-09-20T16:51:15.903Z,0.4
2022-09-20T16:52:32.139Z,0.4
2022-09-20T16:53:48.364Z,0.5
2022-09-20T16:55:03.638Z,0.6
2022-09-20T16:56:19.864Z,0.6
2022-09-20T16:57:36.104Z,0.6
2022-09-20T16:58:52.354Z,0.8
2022-09-20T17:00:08.587Z,0.6
2022-09-20T17:01:24.812Z,0.8
2022-09-20T17:02:41.062Z,0.4
2022-09-20T17:03:57.301Z,0.6
2022-09-20T17:05:13.535Z,0.7
2022-09-20T17:06:29.767Z,0.5
2022-09-20T17:07:46.023Z,0.7
2022-09-20T17:09:02.254Z,0.6
2022-09-20T17:10:18.485Z,0.7
2022-09-20T17:11:33.752Z,0.7
2022-09-20T17:12:49.992Z,0.6
2022-09-20T17:14:06.217Z,0.6
2022-09-20T17:15:22.451Z,0.5
2022-09-20T17:17:54.938Z,0.7
2022-09-20T17:19:10.196Z,1
2022-09-20T17:20:26.433Z,1.2
2022-09-20T17:21:42.674Z,0.8
2022-09-20T17:22:58.916Z,1.3
2022-09-20T17:24:15.155Z,1.1
2022-09-20T17:25:31.391Z,1.4
2022-09-20T17:26:47.626Z,1.3
2022-09-20T17:28:03.855Z,1.3
2022-09-20T17:29:20.101Z,1.4
2022-09-20T17:30:36.348Z,1.2
2022-09-20T17:31:52.585Z,1.5
2022-09-20T17:33:08.817Z,1.4
2022-09-20T17:34:25.054Z,1.4
2022-09-20T17:35:40.311Z,1.1
2022-09-20T17:36:56.558Z,1.2
2022-09-20T17:38:12.790Z,1.1
2022-09-20T17:39:29.035Z,1.1
2022-09-20T17:40:45.259Z,1.1
2022-09-20T17:42:01.512Z,1.8
2022-09-20T17:43:17.747Z,1.7
2022-09-20T17:44:34.037Z,1.6
2022-09-20T17:45:50.336Z,1.1
2022-09-20T17:47:06.623Z,1.4
2022-09-20T17:48:22.911Z,1
2022-09-20T17:49:39.208Z,1
2022-09-20T17:50:55.509Z,1.1
2022-09-20T17:52:10.810Z,1.5